Pagrindinis puslapis
METAR-TAF:

METAR-TAF

Oro uostai :

Altamira, Para, Brazilija

platuma: 03-12S, ilguma: 052-12W, Aukštis: 74 m

Dabartinis oras

Ataskaita buvo paskelbta 1 valandą ir 38 minutes, ne 20:00 UTC
Vėjas 3 kt iš Pietų
Temperatūra 30°C
Drėgmė 66%
Slėgis 1006 hPa
Matomumas 10 km arba daugiau
Išsisklaidę debesys ne aukštis 2500 ft

METAR: SBHT 122000Z 17003KT 9999 SCT025 30/23 Q1006

Laikas: 18:38 (21:38 UTC)


TAF: trūkstamas

Orai ataskaitas ir orų prognozės (METAR, TAF).

turimą stotys yra geltonos ir raudonos taškus žemėlapyje.

Perkelti pele per norėdami pamatyti stoties vardą.

Tada spustelėkite, norėdami matyti oro stebėjimo ir prognozės.

Norėdami pakeisti žemėlapį: spustelėkite ant žalios mygtukų su juodo kryžiaus žemyn,; žalią mygtuką su brūkšneliu, jei norite nutolinti; arba žalių rodyklių gretimoms žemėlapius.


METAR-TAF: